Time,TemperatureF,DewpointF,PressureIn,WindDirection,WindDirectionDegrees,WindSpeedMPH,WindSpeedGustMPH,Humidity,HourlyPrecipIn,Conditions,Clouds,dailyrainin,SolarRadiationWatts/m^2,SoftwareType,DateUTC
2013-05-25 00:21:00,57.0,14.0,-100.00,NNE,17,7.0,8.0,18,-99.99,,,0.00,0.000000,,2013-05-25 06:21:00,
2013-05-25 00:32:00,57.0,14.0,-100.00,NNE,17,7.0,8.0,18,-99.99,,,0.00,0.000000,,2013-05-25 06:32:00,
2013-05-25 00:42:00,57.0,14.0,-100.00,NNE,17,7.0,8.0,18,-99.99,,,0.00,0.000000,,2013-05-25 06:42:00,
2013-05-25 00:52:00,57.0,14.0,-100.00,NNE,17,7.0,8.0,18,-99.99,,,0.00,0.000000,,2013-05-25 06:52:00,
2013-05-25 01:21:00,55.0,14.0,-100.00,NE,43,3.0,10.0,19,-99.99,,,0.00,0.000000,,2013-05-25 07:21:00,
2013-05-25 01:31:00,55.0,14.0,-100.00,NE,43,3.0,10.0,19,-99.99,,,0.00,0.000000,,2013-05-25 07:31:00,
2013-05-25 01:42:00,55.0,14.0,-100.00,NE,43,3.0,10.0,19,-99.99,,,0.00,0.000000,,2013-05-25 07:42:00,
2013-05-25 01:52:00,55.0,14.0,-100.00,NE,43,3.0,10.0,19,-99.99,,,0.00,0.000000,,2013-05-25 07:52:00,
2013-05-25 02:22:00,52.0,12.0,-100.00,NNE,23,4.0,7.0,20,-99.99,,,0.00,0.000000,,2013-05-25 08:22:00,
2013-05-25 02:32:00,52.0,12.0,-100.00,NNE,23,4.0,7.0,20,-99.99,,,0.00,0.000000,,2013-05-25 08:32:00,
2013-05-25 02:42:00,52.0,12.0,-100.00,NNE,23,4.0,7.0,20,-99.99,,,0.00,0.000000,,2013-05-25 08:42:00,
2013-05-25 02:51:00,52.0,12.0,-100.00,NNE,23,4.0,7.0,20,-99.99,,,0.00,0.000000,,2013-05-25 08:51:00,
2013-05-25 03:21:00,52.0,12.0,-100.00,NE,55,2.0,6.0,20,0.00,,,-99.99,0.000000,,2013-05-25 09:21:00,
2013-05-25 03:33:00,52.0,12.0,-100.00,NE,55,2.0,6.0,20,0.00,,,-99.99,0.000000,,2013-05-25 09:33:00,
2013-05-25 03:42:00,52.0,12.0,-100.00,NE,55,2.0,6.0,20,0.00,,,-99.99,0.000000,,2013-05-25 09:42:00,
2013-05-25 03:52:00,52.0,12.0,-100.00,NE,55,2.0,6.0,20,0.00,,,-99.99,0.000000,,2013-05-25 09:52:00,
2013-05-25 04:22:00,50.0,13.0,-100.00,NNE,13,4.0,8.0,22,-99.99,,,0.00,0.000000,,2013-05-25 10:22:00,
2013-05-25 04:32:00,50.0,13.0,-100.00,NNE,13,4.0,8.0,22,-99.99,,,0.00,0.000000,,2013-05-25 10:32:00,
2013-05-25 04:42:00,50.0,13.0,-100.00,NNE,13,4.0,8.0,22,-99.99,,,0.00,0.000000,,2013-05-25 10:42:00,
2013-05-25 04:52:00,50.0,13.0,-100.00,NNE,13,4.0,8.0,22,-99.99,,,0.00,0.000000,,2013-05-25 10:52:00,
2013-05-25 05:21:00,48.0,12.0,-100.00,NNE,14,6.0,8.0,23,-99.99,,,0.00,0.000000,,2013-05-25 11:21:00,
2013-05-25 05:32:00,48.0,12.0,-100.00,NNE,14,6.0,8.0,23,-99.99,,,0.00,0.000000,,2013-05-25 11:32:00,
2013-05-25 05:41:00,48.0,12.0,-100.00,NNE,14,6.0,8.0,23,-99.99,,,0.00,0.000000,,2013-05-25 11:41:00,
2013-05-25 05:52:00,48.0,12.0,-100.00,NNE,14,6.0,8.0,23,-99.99,,,0.00,0.000000,,2013-05-25 11:52:00,
2013-05-25 06:22:00,48.0,13.0,-100.00,North,7,5.0,7.0,24,-99.99,,,0.00,1.000000,,2013-05-25 12:22:00,
2013-05-25 06:32:00,48.0,13.0,-100.00,North,7,5.0,7.0,24,-99.99,,,0.00,1.000000,,2013-05-25 12:32:00,
2013-05-25 06:42:00,48.0,13.0,-100.00,North,7,5.0,7.0,24,-99.99,,,0.00,1.000000,,2013-05-25 12:42:00,
2013-05-25 06:52:00,48.0,13.0,-100.00,North,7,5.0,7.0,24,-99.99,,,0.00,1.000000,,2013-05-25 12:52:00,
2013-05-25 07:21:00,47.0,15.0,-100.00,East,90,1.0,8.0,27,-99.99,,,0.00,14.000000,,2013-05-25 13:21:00,
2013-05-25 07:32:00,47.0,15.0,-100.00,East,90,1.0,8.0,27,-99.99,,,0.00,14.000000,,2013-05-25 13:32:00,
2013-05-25 07:42:00,47.0,15.0,-100.00,East,90,1.0,8.0,27,-99.99,,,0.00,14.000000,,2013-05-25 13:42:00,
2013-05-25 07:52:00,47.0,15.0,-100.00,East,90,1.0,8.0,27,-99.99,,,0.00,14.000000,,2013-05-25 13:52:00,
2013-05-25 08:22:00,56.0,21.0,-100.00,ESE,104,1.0,3.0,25,0.00,,,0.00,187.000000,,2013-05-25 14:22:00,
2013-05-25 08:32:00,56.0,21.0,-100.00,ESE,104,1.0,3.0,25,0.00,,,0.00,187.000000,,2013-05-25 14:32:00,
2013-05-25 08:41:00,56.0,21.0,-100.00,ESE,104,1.0,3.0,25,0.00,,,0.00,187.000000,,2013-05-25 14:41:00,
2013-05-25 08:52:00,56.0,21.0,-100.00,ESE,104,1.0,3.0,25,0.00,,,0.00,187.000000,,2013-05-25 14:52:00,
2013-05-25 09:22:00,62.0,20.0,-100.00,SE,142,3.0,6.0,20,0.00,,,0.00,466.000000,,2013-05-25 15:22:00,
2013-05-25 09:33:00,62.0,20.0,-100.00,SE,142,3.0,6.0,20,0.00,,,0.00,466.000000,,2013-05-25 15:33:00,
2013-05-25 09:43:00,62.0,20.0,-100.00,SE,142,3.0,6.0,20,0.00,,,0.00,466.000000,,2013-05-25 15:43:00,
2013-05-25 09:53:00,62.0,20.0,-100.00,SE,142,3.0,6.0,20,0.00,,,0.00,466.000000,,2013-05-25 15:53:00,
2013-05-25 10:23:00,66.0,20.0,-100.00,WSW,247,4.0,7.0,17,0.00,,,0.00,672.000000,,2013-05-25 16:23:00,
2013-05-25 10:32:00,66.0,20.0,-100.00,WSW,247,4.0,7.0,17,0.00,,,0.00,672.000000,,2013-05-25 16:32:00,
2013-05-25 10:42:00,66.0,20.0,-100.00,WSW,247,4.0,7.0,17,0.00,,,0.00,672.000000,,2013-05-25 16:42:00,
2013-05-25 10:52:00,66.0,20.0,-100.00,WSW,247,4.0,7.0,17,0.00,,,0.00,672.000000,,2013-05-25 16:52:00,
2013-05-25 11:22:00,70.0,11.0,-100.00,South,185,7.0,13.0,10,0.00,,,0.00,847.000000,,2013-05-25 17:22:00,
2013-05-25 11:32:00,70.0,11.0,-100.00,South,185,7.0,13.0,10,0.00,,,0.00,847.000000,,2013-05-25 17:32:00,
2013-05-25 11:41:00,70.0,11.0,-100.00,South,185,7.0,13.0,10,0.00,,,0.00,847.000000,,2013-05-25 17:41:00,
2013-05-25 11:52:00,70.0,11.0,-100.00,South,185,7.0,13.0,10,0.00,,,0.00,847.000000,,2013-05-25 17:52:00,
2013-05-25 12:21:00,73.0,11.0,-100.00,South,174,10.0,19.0,9,0.00,,,0.00,976.000000,,2013-05-25 18:21:00,
2013-05-25 12:32:00,73.0,11.0,-100.00,South,174,10.0,19.0,9,0.00,,,0.00,976.000000,,2013-05-25 18:32:00,
2013-05-25 12:42:00,73.0,11.0,-100.00,South,174,10.0,19.0,9,0.00,,,0.00,976.000000,,2013-05-25 18:42:00,
2013-05-25 12:51:00,73.0,11.0,-100.00,South,174,10.0,19.0,9,0.00,,,0.00,976.000000,,2013-05-25 18:51:00,
2013-05-25 13:21:00,72.0,10.0,-100.00,South,185,10.0,20.0,9,0.00,,,0.00,946.000000,,2013-05-25 19:21:00,
2013-05-25 13:31:00,72.0,10.0,-100.00,South,185,10.0,20.0,9,0.00,,,0.00,946.000000,,2013-05-25 19:31:00,
2013-05-25 13:42:00,72.0,10.0,-100.00,South,185,10.0,20.0,9,0.00,,,0.00,946.000000,,2013-05-25 19:42:00,
2013-05-25 13:52:00,72.0,10.0,-100.00,South,185,10.0,20.0,9,0.00,,,0.00,946.000000,,2013-05-25 19:52:00,
2013-05-25 14:21:00,76.0,10.0,-100.00,SSW,197,9.0,21.0,8,0.00,,,0.00,977.000000,,2013-05-25 20:21:00,
2013-05-25 14:32:00,76.0,10.0,-100.00,SSW,197,9.0,21.0,8,0.00,,,0.00,977.000000,,2013-05-25 20:32:00,
2013-05-25 14:42:00,76.0,10.0,-100.00,SSW,197,9.0,21.0,8,0.00,,,0.00,977.000000,,2013-05-25 20:42:00,
2013-05-25 14:52:00,76.0,10.0,-100.00,SSW,197,9.0,21.0,8,0.00,,,0.00,977.000000,,2013-05-25 20:52:00,
2013-05-25 15:21:00,78.0,9.0,-100.00,SW,227,8.0,17.0,7,0.00,,,0.00,1009.000000,,2013-05-25 21:21:00,
2013-05-25 15:33:00,78.0,9.0,-100.00,SW,227,8.0,17.0,7,0.00,,,0.00,1009.000000,,2013-05-25 21:33:00,
2013-05-25 15:43:00,78.0,9.0,-100.00,SW,227,8.0,17.0,7,0.00,,,0.00,1009.000000,,2013-05-25 21:43:00,
2013-05-25 15:53:00,78.0,9.0,-100.00,SW,227,8.0,17.0,7,0.00,,,0.00,1009.000000,,2013-05-25 21:53:00,
2013-05-25 16:22:00,79.0,10.0,-100.00,SSW,201,7.0,22.0,7,0.00,,,0.00,893.000000,,2013-05-25 22:22:00,
2013-05-25 16:32:00,79.0,10.0,-100.00,SSW,201,7.0,22.0,7,0.00,,,0.00,893.000000,,2013-05-25 22:32:00,
2013-05-25 16:42:00,79.0,10.0,-100.00,SSW,201,7.0,22.0,7,0.00,,,0.00,893.000000,,2013-05-25 22:42:00,
2013-05-25 16:52:00,79.0,10.0,-100.00,SSW,201,7.0,22.0,7,0.00,,,0.00,893.000000,,2013-05-25 22:52:00,
2013-05-25 17:21:00,78.0,6.0,-100.00,SSW,202,10.0,23.0,6,0.00,,,0.00,749.000000,,2013-05-25 23:21:00,
2013-05-25 17:32:00,78.0,6.0,-100.00,SSW,202,10.0,23.0,6,0.00,,,0.00,749.000000,,2013-05-25 23:32:00,
2013-05-25 17:42:00,78.0,6.0,-100.00,SSW,202,10.0,23.0,6,0.00,,,0.00,749.000000,,2013-05-25 23:42:00,
2013-05-25 17:52:00,78.0,6.0,-100.00,SSW,202,10.0,23.0,6,0.00,,,0.00,749.000000,,2013-05-25 23:52:00,
2013-05-25 18:21:00,76.0,7.0,-100.00,SSW,197,8.0,24.0,7,0.00,,,0.00,512.000000,,2013-05-26 00:21:00,
2013-05-25 18:31:00,76.0,7.0,-100.00,SSW,197,8.0,24.0,7,0.00,,,0.00,512.000000,,2013-05-26 00:31:00,
2013-05-25 18:42:00,76.0,7.0,-100.00,SSW,197,8.0,24.0,7,0.00,,,0.00,512.000000,,2013-05-26 00:42:00,
2013-05-25 18:52:00,76.0,7.0,-100.00,SSW,197,8.0,24.0,7,0.00,,,0.00,512.000000,,2013-05-26 00:52:00,
2013-05-25 19:21:00,76.0,10.0,-100.00,WSW,237,6.0,14.0,8,0.00,,,0.00,286.000000,,2013-05-26 01:21:00,
2013-05-25 19:32:00,76.0,10.0,-100.00,WSW,237,6.0,14.0,8,0.00,,,0.00,286.000000,,2013-05-26 01:32:00,
2013-05-25 19:42:00,76.0,10.0,-100.00,WSW,237,6.0,14.0,8,0.00,,,0.00,286.000000,,2013-05-26 01:42:00,
2013-05-25 19:52:00,76.0,10.0,-100.00,WSW,237,6.0,14.0,8,0.00,,,0.00,286.000000,,2013-05-26 01:52:00,
2013-05-25 20:21:00,71.0,12.0,-100.00,NW,315,7.0,13.0,10,0.00,,,0.00,126.000000,,2013-05-26 02:21:00,
2013-05-25 20:32:00,71.0,12.0,-100.00,NW,315,7.0,13.0,10,0.00,,,0.00,126.000000,,2013-05-26 02:32:00,
2013-05-25 20:41:00,71.0,12.0,-100.00,NW,315,7.0,13.0,10,0.00,,,0.00,126.000000,,2013-05-26 02:41:00,
2013-05-25 20:52:00,71.0,12.0,-100.00,NW,315,7.0,13.0,10,0.00,,,0.00,126.000000,,2013-05-26 02:52:00,
2013-05-25 21:21:00,67.0,13.0,-100.00,NNW,337,7.0,13.0,12,0.00,,,0.00,5.000000,,2013-05-26 03:21:00,
2013-05-25 21:33:00,67.0,13.0,-100.00,NNW,337,7.0,13.0,12,0.00,,,0.00,5.000000,,2013-05-26 03:33:00,
2013-05-25 21:42:00,67.0,13.0,-100.00,NNW,337,7.0,13.0,12,0.00,,,0.00,5.000000,,2013-05-26 03:42:00,
2013-05-25 21:53:00,67.0,13.0,-100.00,NNW,337,7.0,13.0,12,0.00,,,0.00,5.000000,,2013-05-26 03:53:00,
2013-05-25 22:23:00,64.0,12.0,-100.00,NNE,29,2.0,12.0,13,0.00,,,0.00,0.000000,,2013-05-26 04:23:00,
2013-05-25 22:33:00,64.0,12.0,-100.00,NNE,29,2.0,12.0,13,0.00,,,0.00,0.000000,,2013-05-26 04:33:00,
2013-05-25 22:42:00,64.0,12.0,-100.00,NNE,29,2.0,12.0,13,0.00,,,0.00,0.000000,,2013-05-26 04:42:00,
2013-05-25 22:52:00,64.0,12.0,-100.00,NNE,29,2.0,12.0,13,0.00,,,0.00,0.000000,,2013-05-26 04:52:00,
2013-05-25 23:22:00,62.0,12.0,-100.00,East,80,2.0,10.0,14,-99.99,,,0.00,0.000000,,2013-05-26 05:22:00,
2013-05-25 23:32:00,62.0,12.0,-100.00,East,80,2.0,10.0,14,-99.99,,,0.00,0.000000,,2013-05-26 05:32:00,
2013-05-25 23:42:00,62.0,12.0,-100.00,East,80,2.0,10.0,14,-99.99,,,0.00,0.000000,,2013-05-26 05:42:00,
2013-05-25 23:52:00,62.0,12.0,-100.00,East,80,2.0,10.0,14,-99.99,,,0.00,0.000000,,2013-05-26 05:52:00,